createdAt,value
2019-05-03T00:00:00.565Z,10.67627
2019-05-03T00:01:11.061Z,10.696411
2019-05-03T00:02:00.099Z,10.696411
2019-05-03T00:02:59.868Z,10.706482
2019-05-03T00:05:00.389Z,10.736694
2019-05-03T00:05:59.964Z,10.736694
2019-05-03T00:08:10.898Z,10.736694
2019-05-03T00:08:59.766Z,10.736694
2019-05-03T00:11:00.432Z,10.736694
2019-05-03T00:13:50.665Z,10.726624
2019-05-03T00:14:39.872Z,10.706482
2019-05-03T00:15:41.031Z,10.706482
2019-05-03T00:16:30.680Z,10.696411
2019-05-03T00:18:09.889Z,10.696411
2019-05-03T00:20:09.782Z,10.706482
2019-05-03T00:21:09.797Z,10.726624
2019-05-03T00:23:01.035Z,10.726624
2019-05-03T00:25:02.932Z,10.726624
2019-05-03T00:25:50.437Z,10.726624
2019-05-03T00:26:49.765Z,10.756836
2019-05-03T00:28:50.133Z,10.756836
2019-05-03T00:29:50.475Z,10.736694
2019-05-03T00:30:49.842Z,10.726624
2019-05-03T00:31:49.750Z,10.726624
2019-05-03T00:33:00.862Z,10.726624
2019-05-03T00:34:00.368Z,10.706482
2019-05-03T00:34:59.884Z,10.706482
2019-05-03T00:36:59.972Z,10.706482
2019-05-03T00:38:00.224Z,10.696411
2019-05-03T00:39:00.068Z,10.666199
2019-05-03T00:39:59.999Z,10.666199
2019-05-03T00:40:59.972Z,10.666199
2019-05-03T00:42:00.842Z,10.656128
2019-05-03T00:42:49.963Z,10.656128
2019-05-03T00:43:50.015Z,10.656128
2019-05-03T00:44:49.833Z,10.656128
2019-05-03T00:45:49.790Z,10.666199
2019-05-03T00:46:49.769Z,10.656128
2019-05-03T00:48:50.552Z,10.635986
2019-05-03T00:53:51.084Z,10.666199
2019-05-03T00:54:50.999Z,10.67627
2019-05-03T00:55:50.562Z,10.666199
2019-05-03T00:56:50.379Z,10.666199
2019-05-03T00:57:50.272Z,10.666199
2019-05-03T01:01:50.142Z,10.656128
2019-05-03T01:02:49.809Z,10.635986
2019-05-03T01:03:50.618Z,10.625916
2019-05-03T01:05:40.494Z,10.605774
2019-05-03T01:06:40.522Z,10.595703
2019-05-03T01:07:40.386Z,10.595703
2019-05-03T01:08:40.134Z,10.585632
2019-05-03T01:10:31.163Z,10.55542
2019-05-03T01:11:20.252Z,10.55542
2019-05-03T01:12:20.058Z,10.545349
2019-05-03T01:13:19.862Z,10.545349
2019-05-03T01:14:20.649Z,10.55542
2019-05-03T01:15:10.576Z,10.55542
2019-05-03T01:16:00.796Z,10.55542
2019-05-03T01:17:00.604Z,10.545349
2019-05-03T01:17:50.648Z,10.55542
2019-05-03T01:18:50.395Z,10.545349
2019-05-03T01:19:50.250Z,10.545349
2019-05-03T01:20:50.070Z,10.525208
2019-05-03T01:21:49.737Z,10.515137
2019-05-03T01:22:50.027Z,10.515137
2019-05-03T01:23:40.040Z,10.505066
2019-05-03T01:24:40.888Z,10.515137
2019-05-03T01:25:40.933Z,10.515137
2019-05-03T01:27:30.569Z,10.515137
2019-05-03T01:28:30.384Z,10.525208
2019-05-03T01:29:30.278Z,10.515137
2019-05-03T01:30:30.173Z,10.525208
2019-05-03T01:31:30.038Z,10.525208
2019-05-03T01:33:40.743Z,10.525208
2019-05-03T01:35:40.892Z,10.515137
2019-05-03T01:36:40.851Z,10.505066
2019-05-03T01:37:40.635Z,10.474854
2019-05-03T01:38:40.453Z,10.505066
2019-05-03T01:39:40.341Z,10.484924
2019-05-03T01:40:40.038Z,10.474854
2019-05-03T01:41:39.853Z,10.474854
2019-05-03T01:42:40.726Z,10.474854
2019-05-03T01:43:29.789Z,10.454712
2019-05-03T01:44:30.739Z,10.474854
2019-05-03T01:45:20.819Z,10.454712
2019-05-03T01:46:20.742Z,10.444641
2019-05-03T01:47:09.815Z,10.444641
2019-05-03T01:49:20.990Z,10.414429
2019-05-03T01:50:21.057Z,10.414429
2019-05-03T01:51:09.946Z,10.4245
2019-05-03T01:54:21.062Z,10.384216
2019-05-03T01:55:20.855Z,10.364075
2019-05-03T01:56:09.896Z,10.364075
2019-05-03T01:57:09.796Z,10.364075
2019-05-03T01:58:10.722Z,10.364075
2019-05-03T01:59:10.510Z,10.364075
2019-05-03T02:02:00.371Z,10.414429
2019-05-03T02:04:01.108Z,10.414429
2019-05-03T02:05:50.186Z,10.404358
2019-05-03T02:06:50.024Z,10.404358
2019-05-03T02:07:50.046Z,10.364075
2019-05-03T02:08:39.931Z,10.364075
2019-05-03T02:09:39.814Z,10.333862
2019-05-03T02:10:30.298Z,10.343933
2019-05-03T02:11:20.373Z,10.323792
2019-05-03T02:12:20.305Z,10.323792
2019-05-03T02:13:21.071Z,10.333862
2019-05-03T02:15:09.874Z,10.30365
2019-05-03T02:16:09.732Z,10.293579
2019-05-03T02:17:10.478Z,10.293579
2019-05-03T02:20:00.296Z,10.263367
2019-05-03T02:22:00.950Z,10.30365
2019-05-03T02:23:00.788Z,10.293579
2019-05-03T02:24:00.686Z,10.30365
2019-05-03T02:26:01.062Z,10.293579
2019-05-03T02:26:51.033Z,10.293579
2019-05-03T02:27:50.820Z,10.30365
2019-05-03T02:28:50.824Z,10.30365
2019-05-03T02:29:50.579Z,10.273438
2019-05-03T02:30:40.808Z,10.293579
2019-05-03T02:31:40.625Z,10.273438
2019-05-03T02:33:30.455Z,10.30365
2019-05-03T02:35:20.404Z,10.293579
2019-05-03T02:36:20.461Z,10.273438
2019-05-03T02:37:19.943Z,10.273438
2019-05-03T02:38:31.241Z,10.253296
2019-05-03T02:39:30.890Z,10.253296
2019-05-03T02:40:31.125Z,10.233154
2019-05-03T02:41:49.214Z,10.253296
2019-05-03T02:42:07.712Z,10.233154
2019-05-03T02:43:13.872Z,10.233154
2019-05-03T02:44:13.129Z,10.233154
2019-05-03T02:45:13.126Z,10.263367
2019-05-03T02:47:24.013Z,10.223083
2019-05-03T02:48:13.900Z,10.233154
2019-05-03T02:50:03.246Z,10.223083
2019-05-03T02:51:03.779Z,10.223083
2019-05-03T02:52:03.670Z,10.223083
2019-05-03T02:53:03.248Z,10.223083
2019-05-03T02:54:03.089Z,10.233154
2019-05-03T02:55:03.547Z,10.223083
2019-05-03T02:56:14.830Z,10.223083
2019-05-03T02:57:03.592Z,10.223083
2019-05-03T02:58:03.168Z,10.202942
2019-05-03T02:59:03.764Z,10.1828
2019-05-03T02:59:52.771Z,10.202942
2019-05-03T03:00:42.904Z,10.202942
2019-05-03T03:05:22.817Z,10.1828
2019-05-03T03:07:23.330Z,10.152588
2019-05-03T03:09:13.566Z,10.172729
2019-05-03T03:10:13.615Z,10.142517
2019-05-03T03:12:03.529Z,10.142517
2019-05-03T03:13:03.311Z,10.142517
2019-05-03T03:14:03.321Z,10.142517
2019-05-03T03:15:03.423Z,10.142517
2019-05-03T03:16:04.379Z,10.142517
2019-05-03T03:16:53.382Z,10.152588
2019-05-03T03:17:53.362Z,10.152588
2019-05-03T03:18:53.327Z,10.172729
2019-05-03T03:19:52.786Z,10.202942
2019-05-03T03:22:42.794Z,10.202942
2019-05-03T03:23:43.498Z,10.223083
2019-05-03T03:25:33.545Z,10.223083
2019-05-03T03:26:38.940Z,10.202942
2019-05-03T03:27:33.727Z,10.1828
2019-05-03T03:28:33.389Z,10.1828
2019-05-03T03:29:33.208Z,10.152588
2019-05-03T03:30:33.832Z,10.142517
2019-05-03T03:31:33.573Z,10.122375
2019-05-03T03:33:24.026Z,10.112305
2019-05-03T03:34:13.893Z,10.112305
2019-05-03T03:35:14.701Z,10.082092
2019-05-03T03:36:37.378Z,10.092163
2019-05-03T03:37:12.928Z,10.082092
2019-05-03T03:38:12.910Z,10.112305
2019-05-03T03:39:12.629Z,10.092163
2019-05-03T03:41:13.606Z,10.112305
2019-05-03T03:42:13.545Z,10.112305
2019-05-03T03:43:13.315Z,10.082092
2019-05-03T03:44:12.812Z,10.082092
2019-05-03T03:47:24.160Z,10.082092
2019-05-03T03:48:23.852Z,10.082092
2019-05-03T03:49:23.764Z,10.082092
2019-05-03T03:50:23.191Z,10.082092
2019-05-03T03:51:23.616Z,10.082092
2019-05-03T03:52:22.907Z,10.082092
2019-05-03T03:53:23.794Z,10.072021
2019-05-03T03:54:23.528Z,10.072021
2019-05-03T03:55:23.349Z,10.05188
2019-05-03T03:56:22.967Z,10.041809
2019-05-03T03:57:22.652Z,10.041809
2019-05-03T03:59:23.400Z,10.041809
2019-05-03T04:00:23.143Z,10.021667
2019-05-03T04:01:23.774Z,10.021667
2019-05-03T04:02:23.586Z,10.041809
2019-05-03T04:03:23.235Z,10.021667
2019-05-03T04:04:23.234Z,10.021667
2019-05-03T04:05:22.736Z,10.021667
2019-05-03T04:08:13.590Z,10.041809
2019-05-03T04:09:03.013Z,10.041809
2019-05-03T04:10:03.031Z,10.041809
2019-05-03T04:11:03.689Z,10.041809
2019-05-03T04:17:33.841Z,10.021667
2019-05-03T04:18:33.872Z,10.041809
2019-05-03T04:20:13.831Z,10.021667
2019-05-03T04:21:13.560Z,10.021667
2019-05-03T04:22:13.715Z,10.021667
2019-05-03T04:23:02.727Z,10.011597
2019-05-03T04:24:03.429Z,9.991455
2019-05-03T04:25:03.383Z,9.991455
2019-05-03T04:26:04.128Z,9.991455
2019-05-03T04:26:53.772Z,9.961243
2019-05-03T04:27:43.139Z,9.941101
2019-05-03T04:31:34.157Z,9.910889
2019-05-03T04:32:25.484Z,9.900818
2019-05-03T04:33:24.021Z,9.900818
2019-05-03T04:34:23.912Z,9.93103
2019-05-03T04:36:13.484Z,9.890747
2019-05-03T04:37:13.426Z,9.870605
2019-05-03T04:38:13.646Z,9.860535
2019-05-03T04:39:16.733Z,9.830322
2019-05-03T04:41:02.948Z,9.810181
2019-05-03T04:42:03.956Z,9.810181
2019-05-03T04:42:53.029Z,9.790039
2019-05-03T04:44:42.885Z,9.759827
2019-05-03T04:45:43.085Z,9.759827
2019-05-03T04:46:43.994Z,9.759827
2019-05-03T04:47:33.312Z,9.759827
2019-05-03T04:48:22.907Z,9.749756
2019-05-03T04:49:12.737Z,9.779968
2019-05-03T04:50:13.611Z,9.759827
2019-05-03T04:51:13.981Z,9.790039
2019-05-03T04:52:02.988Z,9.790039
2019-05-03T04:53:53.391Z,9.790039
2019-05-03T04:54:42.700Z,9.810181
2019-05-03T04:55:44.161Z,9.830322
2019-05-03T04:56:33.309Z,9.830322
2019-05-03T04:57:41.673Z,9.830322
2019-05-03T04:58:33.669Z,9.840393
2019-05-03T04:59:22.960Z,9.860535
2019-05-03T05:00:22.714Z,9.860535
2019-05-03T05:04:23.020Z,9.860535
2019-05-03T05:05:33.813Z,9.870605
2019-05-03T05:06:32.617Z,9.890747
2019-05-03T05:07:43.007Z,9.900818
2019-05-03T05:08:52.741Z,9.910889
2019-05-03T05:10:02.649Z,9.93103
2019-05-03T05:11:13.187Z,9.910889
2019-05-03T05:13:03.027Z,9.900818
2019-05-03T05:14:03.965Z,9.870605
2019-05-03T05:16:03.251Z,9.860535
2019-05-03T05:17:13.560Z,9.840393
2019-05-03T05:18:23.865Z,9.870605
2019-05-03T05:19:33.806Z,9.890747
2019-05-03T05:20:43.467Z,9.870605
2019-05-03T05:21:53.123Z,9.900818
2019-05-03T05:22:52.513Z,9.900818
2019-05-03T05:24:03.428Z,9.890747
2019-05-03T05:25:12.870Z,9.870605
2019-05-03T05:27:12.614Z,9.870605
2019-05-03T05:28:13.019Z,9.870605
2019-05-03T05:29:12.726Z,9.870605
2019-05-03T05:30:23.245Z,9.830322
2019-05-03T05:31:33.844Z,9.860535
2019-05-03T05:32:43.494Z,9.860535
2019-05-03T05:33:42.601Z,9.890747
2019-05-03T05:34:44.152Z,9.900818
2019-05-03T05:35:42.566Z,9.900818
2019-05-03T05:36:53.492Z,9.910889
2019-05-03T05:39:03.381Z,9.870605
2019-05-03T05:40:13.680Z,9.890747
2019-05-03T05:42:23.100Z,9.860535
2019-05-03T05:43:33.836Z,9.860535
2019-05-03T05:44:33.274Z,9.890747
2019-05-03T05:45:32.812Z,9.910889
2019-05-03T05:46:43.607Z,9.910889
2019-05-03T05:50:03.084Z,9.910889
2019-05-03T05:51:14.083Z,9.890747
2019-05-03T05:52:22.554Z,9.890747
2019-05-03T05:53:33.787Z,9.890747
2019-05-03T05:54:43.637Z,9.900818
2019-05-03T05:55:53.161Z,9.890747
2019-05-03T05:57:03.177Z,9.870605
2019-05-03T05:58:13.840Z,9.870605
2019-05-03T05:59:12.806Z,9.860535
2019-05-03T06:00:33.898Z,9.860535
2019-05-03T06:01:43.579Z,9.840393
2019-05-03T06:02:53.211Z,9.840393
2019-05-03T06:04:03.504Z,9.840393
2019-05-03T06:07:13.001Z,9.840393
2019-05-03T06:08:13.202Z,9.890747
2019-05-03T06:09:23.765Z,9.910889
2019-05-03T06:10:22.838Z,9.93103
2019-05-03T06:12:33.483Z,9.961243
2019-05-03T06:13:32.571Z,9.991455
2019-05-03T06:14:32.743Z,10.041809
2019-05-03T06:15:42.907Z,10.072021
2019-05-03T06:16:53.529Z,10.082092
2019-05-03T06:18:03.834Z,10.082092
2019-05-03T06:19:02.842Z,10.082092
2019-05-03T06:20:13.837Z,10.082092
2019-05-03T06:21:12.999Z,10.112305
2019-05-03T06:22:23.749Z,10.142517
2019-05-03T06:23:22.868Z,10.172729
2019-05-03T06:24:23.025Z,10.172729
2019-05-03T06:25:33.324Z,10.223083
2019-05-03T06:26:32.631Z,10.263367
2019-05-03T06:27:43.132Z,10.293579
2019-05-03T06:28:52.728Z,10.333862
2019-05-03T06:29:52.756Z,10.404358
2019-05-03T06:31:02.980Z,10.444641
2019-05-03T06:32:13.504Z,10.454712
2019-05-03T06:33:12.539Z,10.484924
2019-05-03T06:34:33.554Z,10.505066
2019-05-03T06:35:32.716Z,10.505066
2019-05-03T06:36:33.610Z,10.515137
2019-05-03T06:37:43.826Z,10.484924
2019-05-03T06:38:42.946Z,10.474854
2019-05-03T06:39:52.573Z,10.484924
2019-05-03T06:40:52.567Z,10.505066
2019-05-03T06:43:13.805Z,10.484924
2019-05-03T06:44:02.515Z,10.474854
2019-05-03T06:45:13.144Z,10.474854
2019-05-03T06:46:23.386Z,10.454712
2019-05-03T06:47:33.043Z,10.474854
2019-05-03T06:48:42.573Z,10.484924
2019-05-03T06:50:03.617Z,10.525208
2019-05-03T06:51:05.895Z,10.55542
2019-05-03T06:53:13.522Z,10.605774
2019-05-03T06:54:13.479Z,10.635986
2019-05-03T06:55:12.528Z,10.656128
2019-05-03T06:56:24.813Z,10.635986
2019-05-03T06:57:33.689Z,10.635986
2019-05-03T06:58:34.177Z,10.625916
2019-05-03T06:59:43.166Z,10.625916
2019-05-03T07:00:43.347Z,10.595703
2019-05-03T07:01:53.452Z,10.595703
2019-05-03T07:03:53.094Z,10.55542
2019-05-03T07:07:13.667Z,10.515137
2019-05-03T07:08:13.409Z,10.525208
2019-05-03T07:09:12.538Z,10.55542
2019-05-03T07:10:13.034Z,10.595703
2019-05-03T07:11:22.754Z,10.635986
2019-05-03T07:12:33.493Z,10.625916
2019-05-03T07:13:42.944Z,10.625916
2019-05-03T07:14:43.054Z,10.635986
2019-05-03T07:15:53.752Z,10.635986
2019-05-03T07:16:53.431Z,10.666199
2019-05-03T07:17:53.532Z,10.67627
2019-05-03T07:19:52.710Z,10.726624
2019-05-03T07:20:42.568Z,10.736694
2019-05-03T07:21:42.747Z,10.756836
2019-05-03T07:22:42.514Z,10.736694
2019-05-03T07:23:43.121Z,10.776978
2019-05-03T07:24:52.735Z,10.787048
2019-05-03T07:26:03.355Z,10.80719
2019-05-03T07:27:13.859Z,10.80719
2019-05-03T07:28:12.846Z,10.787048
2019-05-03T07:29:23.537Z,10.787048
2019-05-03T07:30:13.686Z,10.80719
2019-05-03T07:31:23.416Z,10.837402
2019-05-03T07:32:33.018Z,10.857544
2019-05-03T07:33:32.648Z,10.877686
2019-05-03T07:34:53.616Z,10.917969
2019-05-03T07:36:03.250Z,10.968323
2019-05-03T07:37:03.766Z,10.998535
2019-05-03T07:38:03.641Z,11.018677
2019-05-03T07:39:03.705Z,10.988464
2019-05-03T07:40:02.684Z,10.968323
2019-05-03T07:41:12.838Z,10.917969
2019-05-03T07:42:13.624Z,10.877686
2019-05-03T07:45:02.975Z,10.887756
2019-05-03T07:46:12.660Z,10.887756
2019-05-03T07:47:12.927Z,10.907898
2019-05-03T07:48:23.289Z,10.877686
2019-05-03T07:49:22.937Z,10.877686
2019-05-03T07:50:23.556Z,10.917969
2019-05-03T07:51:22.782Z,10.958252
2019-05-03T07:54:22.733Z,11.089172
2019-05-03T07:55:33.464Z,11.139526
2019-05-03T07:56:33.652Z,11.17981
2019-05-03T07:57:33.759Z,11.18988
2019-05-03T07:58:33.147Z,11.240234
2019-05-03T07:59:43.702Z,11.290588
2019-05-03T08:00:32.601Z,11.351013
2019-05-03T08:01:33.440Z,11.391296
2019-05-03T08:03:43.156Z,11.512146
2019-05-03T08:04:33.718Z,11.552429
2019-05-03T08:05:43.396Z,11.612854
2019-05-03T08:06:32.501Z,11.653137
2019-05-03T08:08:33.425Z,11.582642
2019-05-03T08:09:43.362Z,11.552429
2019-05-03T08:10:42.760Z,11.512146
2019-05-03T08:11:52.802Z,11.471863
2019-05-03T08:12:52.508Z,11.44165
2019-05-03T08:14:03.049Z,11.461792
2019-05-03T08:15:13.712Z,11.44165
2019-05-03T08:16:13.872Z,11.44165
2019-05-03T08:17:13.394Z,11.461792
2019-05-03T08:18:23.383Z,11.512146
2019-05-03T08:19:24.247Z,11.572571
2019-05-03T08:20:33.140Z,11.612854
2019-05-03T08:21:33.235Z,11.653137
2019-05-03T08:22:42.917Z,11.69342
2019-05-03T08:23:53.612Z,11.753845
2019-05-03T08:26:03.439Z,11.824341
2019-05-03T08:27:02.946Z,11.834412
2019-05-03T08:28:12.487Z,11.904907
2019-05-03T08:29:13.272Z,11.94519
2019-05-03T08:30:02.830Z,11.975403
2019-05-03T08:31:13.070Z,12.015686
2019-05-03T08:33:12.821Z,11.985474
2019-05-03T08:34:23.632Z,11.914978
2019-05-03T08:35:22.469Z,11.914978
2019-05-03T08:37:13.415Z,11.804199
2019-05-03T08:38:23.764Z,11.784058
2019-05-03T08:39:13.730Z,11.784058
2019-05-03T08:40:13.606Z,11.763916
2019-05-03T08:41:12.660Z,11.733704
2019-05-03T08:42:23.286Z,11.703491
2019-05-03T08:43:33.997Z,11.653137
2019-05-03T08:44:43.494Z,11.69342
2019-05-03T08:45:32.745Z,11.653137
2019-05-03T08:46:42.816Z,11.612854
2019-05-03T08:47:53.303Z,11.602783
2019-05-03T08:49:03.026Z,11.582642
2019-05-03T08:50:16.249Z,11.572571
2019-05-03T08:51:12.842Z,11.582642
2019-05-03T08:52:22.682Z,11.673279
2019-05-03T08:53:33.426Z,11.763916
2019-05-03T08:54:42.969Z,11.834412
2019-05-03T08:55:53.198Z,11.94519
2019-05-03T08:57:03.993Z,12.015686
2019-05-03T08:58:13.513Z,12.096252
2019-05-03T08:59:29.586Z,12.096252
2019-05-03T09:00:33.415Z,12.045898
2019-05-03T09:01:33.522Z,12.015686
2019-05-03T09:02:32.641Z,12.005615
2019-05-03T09:03:43.757Z,11.975403
2019-05-03T09:04:43.862Z,11.955261
2019-05-03T09:05:42.985Z,11.914978
2019-05-03T09:06:42.818Z,11.864624
2019-05-03T09:07:42.652Z,11.834412
2019-05-03T09:08:54.900Z,11.784058
2019-05-03T09:11:53.750Z,11.723633
2019-05-03T09:12:53.695Z,11.723633
2019-05-03T09:13:53.745Z,11.723633
2019-05-03T09:14:52.704Z,11.763916
2019-05-03T09:16:03.684Z,11.794128
2019-05-03T09:17:02.916Z,11.794128
2019-05-03T09:18:02.589Z,11.804199
2019-05-03T09:19:03.456Z,11.975403
2019-05-03T09:20:03.363Z,12.156677
2019-05-03T09:21:52.903Z,12.44873
2019-05-03T09:22:53.020Z,12.56958
2019-05-03T09:23:42.900Z,12.670288
2019-05-03T09:24:43.491Z,12.750854
2019-05-03T09:25:43.739Z,12.720642
2019-05-03T09:26:32.921Z,12.640076
2019-05-03T09:27:32.641Z,12.559509
2019-05-03T09:28:43.327Z,12.519226
2019-05-03T09:29:43.952Z,12.468872
2019-05-03T09:31:33.271Z,12.31781
2019-05-03T09:32:23.700Z,12.368164
2019-05-03T09:33:52.601Z,12.408447
2019-05-03T09:34:53.048Z,12.44873
2019-05-03T09:36:53.338Z,12.499084
2019-05-03T09:37:53.616Z,12.458801
2019-05-03T09:41:32.640Z,12.307739
2019-05-03T09:42:33.272Z,12.287598
2019-05-03T09:43:33.770Z,12.287598
2019-05-03T09:44:32.928Z,12.307739
2019-05-03T09:45:43.684Z,12.307739
2019-05-03T09:46:42.718Z,12.337952
2019-05-03T09:47:42.784Z,12.337952
2019-05-03T09:48:58.414Z,12.378235
2019-05-03T09:49:53.895Z,12.44873
2019-05-03T09:50:43.081Z,12.499084
2019-05-03T09:51:33.016Z,12.529297
2019-05-03T09:52:22.559Z,12.670288
2019-05-03T09:54:23.380Z,13.083191
2019-05-03T09:55:23.324Z,13.284607
2019-05-03T09:56:23.840Z,13.486023
2019-05-03T09:58:44.042Z,13.455811
2019-05-03T09:59:54.112Z,13.415527
2019-05-03T10:01:23.517Z,13.304749
2019-05-03T10:02:13.181Z,13.254395
2019-05-03T10:05:53.086Z,12.952271
2019-05-03T10:06:52.703Z,12.851562
2019-05-03T10:08:43.067Z,12.680359
2019-05-03T10:09:42.586Z,12.619934
2019-05-03T10:11:43.120Z,12.599792
2019-05-03T10:13:24.283Z,12.619934
2019-05-03T10:16:22.744Z,13.415527
2019-05-03T10:17:13.622Z,13.667297
2019-05-03T10:18:08.584Z,13.878784
2019-05-03T10:19:52.653Z,14.543457
2019-05-03T10:20:53.637Z,14.83551
2019-05-03T10:21:42.925Z,15.127563
2019-05-03T10:23:33.567Z,15.691528
2019-05-03T10:26:02.943Z,15.903015
2019-05-03T10:26:53.252Z,15.84259
2019-05-03T10:27:43.653Z,15.892944
2019-05-03T10:31:05.389Z,15.802307
2019-05-03T10:31:52.637Z,15.671387
2019-05-03T10:32:42.957Z,15.490112
2019-05-03T10:33:42.707Z,15.288696
2019-05-03T10:35:42.934Z,14.70459
2019-05-03T10:37:33.598Z,14.180908
2019-05-03T10:38:22.569Z,14.060059
2019-05-03T10:39:23.826Z,13.888855
2019-05-03T10:42:02.626Z,13.516235
2019-05-03T10:43:02.655Z,13.435669
2019-05-03T10:44:03.912Z,13.334961
2019-05-03T10:44:53.453Z,13.264465
2019-05-03T10:45:53.807Z,13.153687
2019-05-03T10:46:53.964Z,13.083191
2019-05-03T10:48:53.692Z,12.962341
2019-05-03T10:49:43.781Z,12.901917
2019-05-03T10:50:32.677Z,12.851562
2019-05-03T10:51:33.731Z,12.781067
2019-05-03T10:52:23.675Z,12.720642
2019-05-03T10:54:12.658Z,12.740784
2019-05-03T10:55:13.838Z,12.770996
2019-05-03T10:56:14.659Z,12.851562
2019-05-03T10:57:13.927Z,13.173828
2019-05-03T10:58:13.958Z,13.838501
2019-05-03T11:00:39.229Z,14.825439
2019-05-03T11:01:03.019Z,15.097351
2019-05-03T11:04:12.767Z,15.33905
2019-05-03T11:05:12.684Z,15.167847
2019-05-03T11:06:23.539Z,15.016785
2019-05-03T11:07:23.468Z,14.946289
2019-05-03T11:08:12.585Z,15.157776
2019-05-03T11:11:33.057Z,16.225281
2019-05-03T11:12:32.862Z,16.426697
2019-05-03T11:16:03.640Z,15.802307
2019-05-03T11:17:03.737Z,15.59082
2019-05-03T11:18:03.604Z,15.409546
2019-05-03T11:19:03.424Z,15.359192
2019-05-03T11:20:03.380Z,15.600891
2019-05-03T11:21:03.357Z,15.359192
2019-05-03T11:22:03.388Z,15.187988
2019-05-03T11:23:03.494Z,15.057068
2019-05-03T11:23:52.557Z,14.906006
2019-05-03T11:25:03.189Z,14.754944
2019-05-03T11:28:02.921Z,14.472961
2019-05-03T11:29:13.744Z,14.372253
2019-05-03T11:30:13.728Z,14.321899
2019-05-03T11:31:13.691Z,14.251404
2019-05-03T11:32:03.363Z,14.170837
2019-05-03T11:33:53.279Z,14.029846
2019-05-03T11:34:53.367Z,14.402466
2019-05-03T11:35:53.286Z,14.724731
2019-05-03T11:36:52.993Z,14.875793
2019-05-03T11:38:53.935Z,15.278625
2019-05-03T11:39:53.855Z,15.469971
2019-05-03T11:40:53.781Z,15.560608
2019-05-03T11:42:53.532Z,15.782166
2019-05-03T11:43:42.468Z,15.721741
2019-05-03T11:47:03.680Z,15.671387
2019-05-03T11:47:52.858Z,15.530396
2019-05-03T11:49:03.540Z,15.308838
2019-05-03T11:49:52.656Z,15.187988
2019-05-03T11:52:03.942Z,15.006714
2019-05-03T11:52:53.016Z,14.916077
2019-05-03T11:53:42.959Z,14.855652
2019-05-03T11:54:43.000Z,14.734802
2019-05-03T11:55:33.029Z,14.684448
2019-05-03T11:56:33.901Z,14.603882
2019-05-03T11:57:33.730Z,14.543457
2019-05-03T11:58:23.674Z,14.523315
2019-05-03T11:59:23.498Z,14.503174
2019-05-03T12:00:23.405Z,14.523315
2019-05-03T12:01:33.587Z,14.503174
2019-05-03T12:03:33.510Z,14.372253
2019-05-03T12:04:33.365Z,14.362183
2019-05-03T12:05:22.515Z,14.291687
2019-05-03T12:06:34.325Z,14.221191
2019-05-03T12:08:23.391Z,14.271545
2019-05-03T12:11:22.489Z,14.362183
2019-05-03T12:12:33.385Z,14.372253
2019-05-03T12:13:22.705Z,14.362183
2019-05-03T12:14:22.633Z,14.362183
2019-05-03T12:15:13.162Z,14.362183
2019-05-03T12:17:56.141Z,14.422607
2019-05-03T12:19:43.730Z,14.372253
2019-05-03T12:20:43.996Z,14.352112
2019-05-03T12:23:53.727Z,14.251404
2019-05-03T12:24:43.101Z,14.211121
2019-05-03T12:25:43.001Z,14.100342
2019-05-03T12:26:53.762Z,14.090271
2019-05-03T12:27:42.517Z,14.070129
2019-05-03T12:28:42.496Z,14.019775
2019-05-03T12:29:42.665Z,13.969421
2019-05-03T12:30:42.718Z,13.969421
2019-05-03T12:31:43.330Z,13.989563
2019-05-03T12:32:32.556Z,13.989563
2019-05-03T12:33:43.561Z,14.019775
2019-05-03T12:34:32.807Z,13.999634
2019-05-03T12:35:43.922Z,13.969421
2019-05-03T12:37:33.233Z,14.039917
2019-05-03T12:38:32.597Z,14.100342
2019-05-03T12:39:32.714Z,14.180908
2019-05-03T12:40:43.599Z,14.251404
2019-05-03T12:42:33.065Z,14.241333
2019-05-03T12:44:43.885Z,14.271545
2019-05-03T12:46:42.989Z,14.271545
2019-05-03T12:47:53.768Z,14.251404
2019-05-03T12:48:42.880Z,14.221191
2019-05-03T12:49:53.711Z,14.170837
2019-05-03T12:51:53.910Z,13.94928
2019-05-03T12:53:33.310Z,13.818359
2019-05-03T12:54:33.201Z,13.778076
2019-05-03T12:56:53.799Z,13.778076
2019-05-03T12:58:43.520Z,13.778076
2019-05-03T12:59:33.889Z,13.778076
2019-05-03T13:00:23.000Z,13.747864
2019-05-03T13:01:22.946Z,13.727722
2019-05-03T13:02:22.920Z,13.727722
2019-05-03T13:03:22.633Z,13.707581
2019-05-03T13:04:22.680Z,13.667297
2019-05-03T13:05:33.729Z,13.637085
2019-05-03T13:06:23.499Z,13.616943
2019-05-03T13:08:13.039Z,13.566589
2019-05-03T13:09:13.965Z,13.536377
2019-05-03T13:10:03.122Z,13.506165
2019-05-03T13:11:03.129Z,13.44574
2019-05-03T13:12:03.484Z,13.44574
2019-05-03T13:13:53.797Z,13.385315
2019-05-03T13:14:43.199Z,13.415527
2019-05-03T13:15:33.316Z,13.435669
2019-05-03T13:16:33.351Z,13.44574
2019-05-03T13:19:23.746Z,13.486023
2019-05-03T13:20:02.852Z,13.516235
2019-05-03T13:21:03.138Z,13.586731
2019-05-03T13:23:03.187Z,13.616943
2019-05-03T13:25:42.749Z,13.627014
2019-05-03T13:27:43.541Z,13.637085
2019-05-03T13:29:23.500Z,13.667297
2019-05-03T13:30:13.844Z,13.69751
2019-05-03T13:31:13.933Z,13.727722
2019-05-03T13:33:13.015Z,13.778076
2019-05-03T13:34:13.892Z,13.808289
2019-05-03T13:35:03.935Z,13.838501
2019-05-03T13:35:53.212Z,13.888855
2019-05-03T13:36:52.927Z,13.919067
2019-05-03T13:39:11.244Z,14.019775
2019-05-03T13:43:12.940Z,14.090271
2019-05-03T13:44:13.761Z,14.029846
2019-05-03T13:45:02.842Z,14.019775
2019-05-03T13:46:13.519Z,13.959351
2019-05-03T13:47:13.142Z,13.888855
2019-05-03T13:48:24.152Z,13.818359
2019-05-03T13:49:13.911Z,13.778076
2019-05-03T13:51:43.138Z,13.687439
2019-05-03T13:52:53.887Z,13.687439
2019-05-03T13:53:32.718Z,13.667297
2019-05-03T13:54:45.831Z,13.657227
2019-05-03T13:55:33.300Z,13.637085
2019-05-03T13:56:33.204Z,13.616943
2019-05-03T13:57:43.813Z,13.586731
2019-05-03T13:58:33.695Z,13.546448
2019-05-03T13:59:22.644Z,13.516235
2019-05-03T14:00:22.609Z,13.475952
2019-05-03T14:01:23.217Z,13.44574
2019-05-03T14:03:13.178Z,13.385315
2019-05-03T14:04:12.688Z,13.334961
2019-05-03T14:05:13.498Z,13.32489
2019-05-03T14:06:03.499Z,13.294678
2019-05-03T14:07:13.225Z,13.264465
2019-05-03T14:08:13.217Z,13.294678
2019-05-03T14:09:03.172Z,13.334961
2019-05-03T14:11:13.537Z,13.375244
2019-05-03T14:12:13.408Z,13.375244
2019-05-03T14:14:23.788Z,13.435669
2019-05-03T14:15:23.579Z,13.44574
2019-05-03T14:16:12.457Z,13.455811
2019-05-03T14:18:43.677Z,13.405457
2019-05-03T14:19:43.416Z,13.405457
2019-05-03T14:20:33.072Z,13.385315
2019-05-03T14:21:32.655Z,13.375244
2019-05-03T14:24:42.642Z,13.375244
2019-05-03T14:25:53.279Z,13.405457
2019-05-03T14:27:03.707Z,13.415527
2019-05-03T14:28:03.599Z,13.44574
2019-05-03T14:29:03.726Z,13.435669
2019-05-03T14:30:03.448Z,13.435669
2019-05-03T14:31:03.332Z,13.415527